Time;durP1;ratioP1;P1;durP2;ratioP2;P2;SDS_P1;SDS_P2;PMS_P1;PMS_P2;Temp;Humidity;BMP_temperature;BMP_pressure;BME280_temperature;BME280_humidity;BME280_pressure;Samples;Min_cycle;Max_cycle;Signal;HPM_P1;HPM_P2
2023/04/24 00:00:40;;;;;;;;;;;10.30;99.90;;;;;;4990455;28;19927;-83
2023/04/24 00:03:07;;;;;;;;;;;10.20;99.90;;;;;;5007841;28;19925;-81
2023/04/24 00:05:32;;;;;;;;;;;10.20;99.90;;;;;;5013407;28;20525;-82
2023/04/24 00:07:58;;;;;;;;;;;10.10;99.90;;;;;;5010858;28;19932;-81
2023/04/24 00:10:23;;;;;;;;;;;10.10;99.90;;;;;;4980421;28;19921;-81
2023/04/24 00:12:49;;;;;;;;;;;10.00;99.90;;;;;;4987740;28;20463;-80
2023/04/24 00:15:15;;;;;;;;;;;10.10;99.90;;;;;;5005709;28;19932;-81
2023/04/24 00:17:40;;;;;;;;;;;10.00;99.90;;;;;;5011416;28;19924;-80
2023/04/24 00:20:06;;;;;;;;;;;10.00;99.90;;;;;;5005163;28;19931;-81
2023/04/24 00:22:32;;;;;;;;;;;10.00;99.90;;;;;;5011361;28;19975;-80
2023/04/24 00:24:57;;;;;;;;;;;9.90;99.90;;;;;;5009968;28;21833;-82
2023/04/24 00:27:23;;;;;;;;;;;9.90;99.90;;;;;;5008331;28;19936;-79
2023/04/24 00:29:49;;;;;;;;;;;9.90;99.90;;;;;;5008444;28;20337;-82
2023/04/24 00:32:15;;;;;;;;;;;9.90;99.90;;;;;;4995398;28;19993;-79
2023/04/24 00:34:40;;;;;;;;;;;9.90;99.90;;;;;;4972529;28;19925;-81
2023/04/24 00:37:06;;;;;;;;;;;9.90;99.90;;;;;;5005108;28;19940;-80
2023/04/24 00:39:32;;;;;;;;;;;9.90;99.90;;;;;;4991275;28;20029;-80
2023/04/24 00:41:57;;;;;;;;;;;9.90;99.90;;;;;;5018526;28;19929;-81
2023/04/24 00:44:23;;;;;;;;;;;9.90;99.90;;;;;;5004882;28;19944;-79
2023/04/24 00:46:51;;;;;;;;;;;9.90;99.90;;;;;;4999271;28;20016;-80
2023/04/24 00:49:21;;;;;;;;;;;9.80;99.90;;;;;;5025019;28;20757;-80
2023/04/24 00:51:47;;;;;;;;;;;9.80;99.90;;;;;;5014527;28;19920;-80
2023/04/24 00:54:13;;;;;;;;;;;9.70;99.90;;;;;;5002881;28;19931;-81
2023/04/24 00:56:40;;;;;;;;;;;9.90;99.90;;;;;;5001834;28;20020;-80
2023/04/24 00:59:06;;;;;;;;;;;9.80;99.90;;;;;;4998388;28;21340;-81
2023/04/24 01:01:32;;;;;;;;;;;9.80;99.90;;;;;;5018585;28;19928;-79
2023/04/24 01:03:58;;;;;;;;;;;9.80;99.90;;;;;;5025151;28;19936;-80
2023/04/24 01:06:27;;;;;;;;;;;9.80;99.90;;;;;;4997490;28;19927;-81
2023/04/24 01:08:52;;;;;;;;;;;9.80;99.90;;;;;;5017381;28;20058;-79
2023/04/24 01:11:18;;;;;;;;;;;9.70;99.90;;;;;;5022719;28;19982;-79
2023/04/24 01:13:44;;;;;;;;;;;9.70;99.90;;;;;;5025545;28;19929;-80
2023/04/24 01:16:10;;;;;;;;;;;9.70;99.90;;;;;;5020236;28;19979;-79
2023/04/24 01:18:36;;;;;;;;;;;9.80;99.90;;;;;;5001408;28;20453;-81
2023/04/24 01:21:03;;;;;;;;;;;9.70;99.90;;;;;;5003302;28;19929;-81
2023/04/24 01:23:29;;;;;;;;;;;9.80;99.90;;;;;;5004632;28;19971;-80
2023/04/24 01:25:55;;;;;;;;;;;9.80;99.90;;;;;;5021897;28;20007;-80
2023/04/24 01:28:20;;;;;;;;;;;9.70;99.90;;;;;;5021156;28;19951;-80
2023/04/24 01:30:46;;;;;;;;;;;9.80;99.90;;;;;;4996145;28;19937;-81
2023/04/24 01:33:12;;;;;;;;;;;9.70;99.90;;;;;;4996883;28;19936;-80
2023/04/24 01:35:38;;;;;;;;;;;9.80;99.90;;;;;;4982515;28;19929;-80
2023/04/24 01:38:03;;;;;;;;;;;9.70;99.90;;;;;;5002829;28;19929;-81
2023/04/24 01:40:29;;;;;;;;;;;9.70;99.90;;;;;;5001769;28;19924;-80
2023/04/24 01:42:55;;;;;;;;;;;9.80;99.90;;;;;;4998983;28;19935;-80
2023/04/24 01:45:20;;;;;;;;;;;9.80;99.90;;;;;;5019566;28;19935;-81
2023/04/24 01:47:46;;;;;;;;;;;9.80;99.90;;;;;;5022312;28;20131;-81
2023/04/24 01:50:12;;;;;;;;;;;9.80;99.90;;;;;;4996811;28;19936;-80
2023/04/24 01:52:37;;;;;;;;;;;9.80;99.90;;;;;;5000545;28;21093;-80
2023/04/24 01:55:03;;;;;;;;;;;9.80;99.90;;;;;;5005473;28;20672;-80
2023/04/24 01:57:30;;;;;;;;;;;9.90;99.90;;;;;;5005154;28;19936;-80
2023/04/24 01:59:56;;;;;;;;;;;9.80;99.90;;;;;;4998706;28;20404;-79
2023/04/24 02:02:23;;;;;;;;;;;9.90;99.90;;;;;;5006485;28;19929;-79
2023/04/24 02:04:52;;;;;;;;;;;9.90;99.90;;;;;;5026354;28;19929;-79
2023/04/24 02:07:17;;;;;;;;;;;9.80;99.90;;;;;;5003989;28;19929;-80
2023/04/24 02:09:43;;;;;;;;;;;9.90;99.90;;;;;;4988447;28;19925;-79
2023/04/24 02:12:08;;;;;;;;;;;10.00;99.90;;;;;;5005871;28;19998;-79
2023/04/24 02:14:34;;;;;;;;;;;9.90;99.90;;;;;;5028580;28;19921;-80
2023/04/24 02:17:00;;;;;;;;;;;9.90;99.90;;;;;;5015880;28;19929;-80
2023/04/24 02:19:26;;;;;;;;;;;9.90;99.90;;;;;;5011768;28;20058;-80
2023/04/24 02:21:51;;;;;;;;;;;9.90;99.90;;;;;;4999389;28;19944;-80
2023/04/24 02:24:17;;;;;;;;;;;9.90;99.90;;;;;;5018723;28;20723;-80
2023/04/24 02:26:42;;;;;;;;;;;9.90;99.90;;;;;;5021760;28;20014;-80
2023/04/24 02:29:08;;;;;;;;;;;9.90;99.90;;;;;;5021943;28;20758;-80
2023/04/24 02:31:33;;;;;;;;;;;9.90;99.90;;;;;;5022110;28;20050;-80
2023/04/24 02:33:59;;;;;;;;;;;9.90;99.90;;;;;;5024694;28;20019;-80
2023/04/24 02:36:25;;;;;;;;;;;9.90;99.90;;;;;;5019028;28;19924;-79
2023/04/24 02:38:50;;;;;;;;;;;9.80;99.90;;;;;;5023348;28;19943;-81
2023/04/24 02:41:16;;;;;;;;;;;9.90;99.90;;;;;;5009151;28;20616;-80
2023/04/24 02:43:41;;;;;;;;;;;9.90;99.90;;;;;;5006496;28;21366;-80
2023/04/24 02:46:07;;;;;;;;;;;9.80;99.90;;;;;;4987470;28;19965;-79
2023/04/24 02:48:33;;;;;;;;;;;9.80;99.90;;;;;;5006699;28;19921;-81
2023/04/24 02:50:58;;;;;;;;;;;9.80;99.90;;;;;;5021539;28;19923;-79
2023/04/24 02:53:24;;;;;;;;;;;9.80;99.90;;;;;;5007051;28;20145;-79
2023/04/24 02:55:49;;;;;;;;;;;9.80;99.90;;;;;;5020612;28;19924;-80
2023/04/24 02:58:15;;;;;;;;;;;9.80;99.90;;;;;;5006250;28;19927;-79
2023/04/24 03:00:41;;;;;;;;;;;9.80;99.90;;;;;;5022962;28;20015;-80
2023/04/24 03:03:07;;;;;;;;;;;9.80;99.90;;;;;;5005753;28;19924;-79
2023/04/24 03:05:32;;;;;;;;;;;9.80;99.90;;;;;;5020762;28;20562;-79
2023/04/24 03:07:58;;;;;;;;;;;9.80;99.90;;;;;;5003788;28;20319;-77
2023/04/24 03:10:24;;;;;;;;;;;9.80;99.90;;;;;;5003343;28;20019;-80
2023/04/24 03:12:49;;;;;;;;;;;9.80;99.90;;;;;;5005842;28;19916;-79
2023/04/24 03:15:15;;;;;;;;;;;9.80;99.90;;;;;;5004312;28;19921;-79
2023/04/24 03:17:41;;;;;;;;;;;9.80;99.90;;;;;;5004626;28;20063;-79
2023/04/24 03:20:08;;;;;;;;;;;9.70;99.90;;;;;;5019237;28;19979;-80
2023/04/24 03:22:34;;;;;;;;;;;9.70;99.90;;;;;;5020349;28;19920;-80
2023/04/24 03:24:59;;;;;;;;;;;9.70;99.90;;;;;;5022270;28;19916;-79
2023/04/24 03:27:25;;;;;;;;;;;9.70;99.90;;;;;;5020651;28;19920;-79
2023/04/24 03:29:55;;;;;;;;;;;9.70;99.90;;;;;;5031031;28;20289;-79
2023/04/24 03:32:24;;;;;;;;;;;9.70;99.90;;;;;;5021920;28;19925;-79
2023/04/24 03:34:49;;;;;;;;;;;9.70;99.90;;;;;;5020592;28;19924;-80
2023/04/24 03:37:18;;;;;;;;;;;9.70;99.90;;;;;;5036937;28;20398;-79
2023/04/24 03:39:43;;;;;;;;;;;9.60;99.90;;;;;;5019741;28;19921;-78
2023/04/24 03:42:09;;;;;;;;;;;9.60;99.90;;;;;;5037070;28;19990;-80
2023/04/24 03:44:35;;;;;;;;;;;9.60;99.90;;;;;;5020550;28;19923;-80
2023/04/24 03:47:00;;;;;;;;;;;9.60;99.90;;;;;;5037163;28;19920;-81
2023/04/24 03:49:26;;;;;;;;;;;9.60;99.90;;;;;;5021070;28;19916;-79
2023/04/24 03:51:52;;;;;;;;;;;9.60;99.90;;;;;;5039218;28;20584;-79
2023/04/24 03:54:18;;;;;;;;;;;9.60;99.90;;;;;;5020114;28;20348;-80
2023/04/24 03:56:44;;;;;;;;;;;9.60;99.90;;;;;;5033342;28;19916;-80
2023/04/24 03:59:09;;;;;;;;;;;9.60;99.90;;;;;;5036595;28;20782;-79
2023/04/24 04:01:39;;;;;;;;;;;9.50;99.90;;;;;;5022652;28;19924;-80
2023/04/24 04:04:05;;;;;;;;;;;9.50;99.90;;;;;;5037269;28;19929;-80
2023/04/24 04:06:31;;;;;;;;;;;9.50;99.90;;;;;;5020753;28;20469;-80
2023/04/24 04:08:56;;;;;;;;;;;9.50;99.90;;;;;;5020544;28;19921;-80
2023/04/24 04:11:22;;;;;;;;;;;9.60;99.90;;;;;;5024413;28;19916;-79
2023/04/24 04:13:48;;;;;;;;;;;9.60;99.90;;;;;;5040713;28;20011;-79
2023/04/24 04:16:14;;;;;;;;;;;9.50;99.90;;;;;;5041131;28;19935;-79
2023/04/24 04:18:39;;;;;;;;;;;9.50;99.90;;;;;;5025316;28;19928;-80
2023/04/24 04:21:05;;;;;;;;;;;9.50;99.90;;;;;;5023165;28;19920;-80
2023/04/24 04:23:31;;;;;;;;;;;9.60;99.90;;;;;;5041900;28;19978;-79
2023/04/24 04:25:57;;;;;;;;;;;9.60;99.90;;;;;;5023069;28;19969;-79
2023/04/24 04:28:24;;;;;;;;;;;9.50;99.90;;;;;;5024186;28;19924;-80
2023/04/24 04:30:53;;;;;;;;;;;9.60;99.90;;;;;;5032193;28;19971;-79
2023/04/24 04:33:19;;;;;;;;;;;9.60;99.90;;;;;;5037425;28;19928;-79
2023/04/24 04:35:48;;;;;;;;;;;9.60;99.90;;;;;;5022023;28;19975;-79
2023/04/24 04:38:14;;;;;;;;;;;9.60;99.90;;;;;;5034256;28;19917;-79
2023/04/24 04:40:40;;;;;;;;;;;9.60;99.90;;;;;;5018299;28;19955;-79
2023/04/24 04:43:06;;;;;;;;;;;9.60;99.90;;;;;;5022254;28;19921;-79
2023/04/24 04:45:32;;;;;;;;;;;9.70;99.90;;;;;;5022095;28;19923;-79
2023/04/24 04:48:00;;;;;;;;;;;9.70;99.90;;;;;;5038747;28;20568;-77
2023/04/24 04:50:26;;;;;;;;;;;9.70;99.90;;;;;;5040282;28;19931;-80
2023/04/24 04:52:52;;;;;;;;;;;9.70;99.90;;;;;;5039376;28;19963;-80
2023/04/24 04:55:19;;;;;;;;;;;9.60;99.90;;;;;;5020189;28;19972;-78
2023/04/24 04:57:45;;;;;;;;;;;9.70;99.90;;;;;;5039136;28;20859;-78
2023/04/24 05:00:11;;;;;;;;;;;9.70;99.90;;;;;;5019582;28;20008;-78
2023/04/24 05:02:37;;;;;;;;;;;9.70;99.90;;;;;;5042968;28;19920;-79
2023/04/24 05:05:03;;;;;;;;;;;9.80;99.90;;;;;;5036342;28;20638;-80
2023/04/24 05:07:28;;;;;;;;;;;9.70;99.90;;;;;;5018771;28;19924;-81
2023/04/24 05:09:54;;;;;;;;;;;9.80;99.90;;;;;;5036179;28;19920;-79
2023/04/24 05:12:19;;;;;;;;;;;9.90;99.90;;;;;;5018049;28;19931;-82
2023/04/24 05:14:45;;;;;;;;;;;9.80;99.90;;;;;;5019126;28;20590;-80
2023/04/24 05:17:11;;;;;;;;;;;9.80;99.90;;;;;;5037872;28;19995;-79
2023/04/24 05:19:38;;;;;;;;;;;9.70;99.90;;;;;;5017698;28;19960;-80
2023/04/24 05:22:06;;;;;;;;;;;9.80;99.90;;;;;;5021012;28;19935;-80
2023/04/24 05:24:32;;;;;;;;;;;9.80;99.90;;;;;;5023813;28;19927;-79
2023/04/24 05:26:58;;;;;;;;;;;9.70;99.90;;;;;;5038806;28;19921;-79
2023/04/24 05:29:25;;;;;;;;;;;9.70;99.90;;;;;;5023015;28;20014;-79
2023/04/24 05:31:50;;;;;;;;;;;9.80;99.90;;;;;;5020966;28;19960;-80
2023/04/24 05:34:16;;;;;;;;;;;9.70;99.90;;;;;;5038845;28;20022;-80
2023/04/24 05:36:42;;;;;;;;;;;9.80;99.90;;;;;;5039492;28;19970;-80
2023/04/24 05:39:08;;;;;;;;;;;9.90;99.90;;;;;;5026435;28;19924;-82
2023/04/24 05:41:34;;;;;;;;;;;10.00;99.90;;;;;;5037946;28;19928;-80
2023/04/24 05:43:59;;;;;;;;;;;9.90;99.90;;;;;;5038001;28;20640;-80
2023/04/24 05:46:25;;;;;;;;;;;9.90;99.90;;;;;;5037415;28;19987;-80
2023/04/24 05:48:50;;;;;;;;;;;9.90;99.90;;;;;;5032751;28;19983;-79
2023/04/24 05:51:16;;;;;;;;;;;9.80;99.90;;;;;;5020666;28;19924;-80
2023/04/24 05:53:41;;;;;;;;;;;9.80;99.90;;;;;;5021757;28;19921;-80
2023/04/24 05:56:07;;;;;;;;;;;9.80;99.90;;;;;;5018982;28;19925;-80
2023/04/24 05:58:33;;;;;;;;;;;9.70;99.90;;;;;;5020971;28;19920;-79
2023/04/24 06:01:00;;;;;;;;;;;9.80;99.90;;;;;;5038770;28;19927;-80
2023/04/24 06:03:27;;;;;;;;;;;9.90;99.90;;;;;;5028652;28;19928;-80
2023/04/24 06:05:52;;;;;;;;;;;9.70;99.90;;;;;;5019903;28;19923;-79
2023/04/24 06:08:18;;;;;;;;;;;9.80;99.90;;;;;;5019600;28;19921;-81
2023/04/24 06:10:43;;;;;;;;;;;9.80;99.90;;;;;;5018265;28;19943;-80
2023/04/24 06:13:09;;;;;;;;;;;9.70;99.90;;;;;;5018157;28;19928;-80
2023/04/24 06:15:35;;;;;;;;;;;9.70;99.90;;;;;;5020121;28;19921;-81
2023/04/24 06:18:00;;;;;;;;;;;9.60;99.90;;;;;;5021152;28;20413;-81
2023/04/24 06:20:26;;;;;;;;;;;9.70;99.90;;;;;;5030427;28;20016;-80
2023/04/24 06:22:51;;;;;;;;;;;9.70;99.90;;;;;;5024667;28;20082;-82
2023/04/24 06:25:17;;;;;;;;;;;9.70;99.90;;;;;;5020710;28;20460;-82
2023/04/24 06:27:43;;;;;;;;;;;9.60;99.90;;;;;;5020617;28;20321;-81
2023/04/24 06:30:09;;;;;;;;;;;9.60;99.90;;;;;;5020385;28;20389;-81
2023/04/24 06:32:34;;;;;;;;;;;9.60;99.90;;;;;;5019301;28;20433;-81
2023/04/24 06:35:00;;;;;;;;;;;9.60;99.90;;;;;;5017191;28;20058;-81
2023/04/24 06:37:25;;;;;;;;;;;9.50;99.90;;;;;;5021995;28;19920;-82
2023/04/24 06:39:51;;;;;;;;;;;9.50;99.90;;;;;;5019645;28;19921;-83
2023/04/24 06:42:16;;;;;;;;;;;9.60;99.90;;;;;;5020303;28;19920;-81
2023/04/24 06:44:42;;;;;;;;;;;9.70;99.90;;;;;;5019413;28;20019;-82
2023/04/24 06:47:08;;;;;;;;;;;9.70;99.90;;;;;;5020043;28;20374;-82
2023/04/24 06:49:37;;;;;;;;;;;9.70;99.90;;;;;;5023818;28;19939;-83
2023/04/24 06:52:03;;;;;;;;;;;9.70;99.90;;;;;;5022526;28;19921;-83
2023/04/24 06:54:29;;;;;;;;;;;9.60;99.90;;;;;;5021632;28;20289;-83
2023/04/24 06:56:55;;;;;;;;;;;9.60;99.90;;;;;;5021687;28;19917;-83
2023/04/24 06:59:20;;;;;;;;;;;9.60;99.90;;;;;;5024277;28;20062;-83
2023/04/24 07:01:46;;;;;;;;;;;9.50;99.90;;;;;;5030983;28;20488;-82
2023/04/24 07:04:12;;;;;;;;;;;9.70;99.90;;;;;;5022184;28;20324;-82
2023/04/24 07:06:38;;;;;;;;;;;9.60;99.90;;;;;;5021721;28;19936;-83
2023/04/24 07:09:04;;;;;;;;;;;9.50;99.90;;;;;;5021132;28;19920;-83
2023/04/24 07:11:30;;;;;;;;;;;9.50;99.90;;;;;;5022653;28;19932;-81
2023/04/24 07:13:55;;;;;;;;;;;9.50;99.90;;;;;;5022136;28;19921;-83
2023/04/24 07:16:21;;;;;;;;;;;9.50;99.90;;;;;;5020340;28;20428;-81
2023/04/24 07:18:47;;;;;;;;;;;9.50;99.90;;;;;;5006579;28;19950;-81
2023/04/24 07:21:12;;;;;;;;;;;9.40;99.90;;;;;;5013778;28;19975;-82
2023/04/24 07:23:38;;;;;;;;;;;9.50;99.90;;;;;;5015991;28;19927;-82
2023/04/24 07:26:03;;;;;;;;;;;9.40;99.90;;;;;;5021134;28;19927;-82
2023/04/24 07:28:32;;;;;;;;;;;9.30;99.90;;;;;;5018231;28;19921;-80
2023/04/24 07:30:58;;;;;;;;;;;9.50;99.90;;;;;;5015706;28;20362;-83
2023/04/24 07:33:24;;;;;;;;;;;9.50;99.90;;;;;;5028197;28;19921;-83
2023/04/24 07:35:49;;;;;;;;;;;9.50;99.90;;;;;;5018646;28;19920;-80
2023/04/24 07:38:15;;;;;;;;;;;9.50;99.90;;;;;;5023422;28;20007;-81
2023/04/24 07:40:40;;;;;;;;;;;9.50;99.90;;;;;;5020045;28;19952;-82
2023/04/24 07:43:06;;;;;;;;;;;9.50;99.90;;;;;;5020779;28;19921;-82
2023/04/24 07:45:35;;;;;;;;;;;9.50;99.90;;;;;;5026244;28;19928;-82
2023/04/24 07:48:01;;;;;;;;;;;9.60;99.90;;;;;;5021735;28;19920;-81
2023/04/24 07:50:26;;;;;;;;;;;9.40;99.90;;;;;;5023719;28;19921;-82
2023/04/24 07:52:52;;;;;;;;;;;9.50;99.90;;;;;;5024700;28;19920;-83
2023/04/24 07:55:18;;;;;;;;;;;9.40;99.90;;;;;;5023180;28;19920;-82
2023/04/24 07:57:43;;;;;;;;;;;9.60;99.90;;;;;;5022886;28;19927;-83
2023/04/24 08:00:09;;;;;;;;;;;9.60;99.90;;;;;;5020821;28;19921;-82
2023/04/24 08:02:35;;;;;;;;;;;9.50;99.90;;;;;;5020464;28;19983;-83
2023/04/24 08:05:01;;;;;;;;;;;9.70;99.90;;;;;;5014009;28;19920;-81
2023/04/24 08:07:26;;;;;;;;;;;9.70;99.90;;;;;;5012162;28;19991;-82
2023/04/24 08:09:52;;;;;;;;;;;9.90;99.90;;;;;;5011465;28;20083;-82
2023/04/24 08:12:17;;;;;;;;;;;9.80;99.90;;;;;;5023680;28;20623;-82
2023/04/24 08:14:43;;;;;;;;;;;9.90;99.90;;;;;;5022023;28;19920;-82
2023/04/24 08:17:08;;;;;;;;;;;10.10;99.90;;;;;;5022446;28;19928;-81
2023/04/24 08:19:34;;;;;;;;;;;10.00;99.90;;;;;;5022068;28;19951;-83
2023/04/24 08:21:59;;;;;;;;;;;10.20;99.90;;;;;;5021029;28;19936;-82
2023/04/24 08:24:25;;;;;;;;;;;10.10;99.90;;;;;;5031167;28;20027;-81
2023/04/24 08:26:51;;;;;;;;;;;10.10;99.90;;;;;;5017815;28;20285;-81
2023/04/24 08:29:17;;;;;;;;;;;10.20;99.90;;;;;;5031807;28;19921;-81
2023/04/24 08:31:42;;;;;;;;;;;10.30;99.90;;;;;;5018133;28;19921;-81
2023/04/24 08:34:09;;;;;;;;;;;10.30;99.90;;;;;;5025970;28;19928;-81
2023/04/24 08:36:34;;;;;;;;;;;10.20;99.90;;;;;;5017874;28;19921;-80
2023/04/24 08:39:00;;;;;;;;;;;10.30;99.90;;;;;;5018499;28;19925;-81
2023/04/24 08:41:26;;;;;;;;;;;10.20;99.90;;;;;;5023932;28;20561;-81
2023/04/24 08:43:52;;;;;;;;;;;10.30;99.90;;;;;;5012433;28;19917;-81
2023/04/24 08:46:19;;;;;;;;;;;10.30;99.90;;;;;;5019165;28;19925;-83
2023/04/24 08:48:45;;;;;;;;;;;10.30;99.90;;;;;;5005232;28;19951;-82
2023/04/24 08:51:10;;;;;;;;;;;10.40;99.90;;;;;;5002285;28;20452;-81
2023/04/24 08:53:36;;;;;;;;;;;10.40;99.90;;;;;;5024711;28;19929;-81
2023/04/24 08:56:02;;;;;;;;;;;10.50;99.90;;;;;;5001908;28;20274;-83
2023/04/24 08:58:28;;;;;;;;;;;10.50;99.90;;;;;;4989396;28;20374;-81
2023/04/24 09:00:55;;;;;;;;;;;10.60;99.90;;;;;;5005122;28;19932;-81
2023/04/24 09:03:21;;;;;;;;;;;10.50;99.90;;;;;;5005510;28;19921;-82
2023/04/24 09:05:47;;;;;;;;;;;10.60;99.90;;;;;;5001809;28;20460;-81
2023/04/24 09:08:13;;;;;;;;;;;10.50;99.90;;;;;;5005866;28;20008;-81
2023/04/24 09:10:39;;;;;;;;;;;10.40;99.90;;;;;;5004284;28;21438;-81
2023/04/24 09:13:05;;;;;;;;;;;10.60;99.90;;;;;;5025347;28;19916;-81
2023/04/24 09:15:31;;;;;;;;;;;10.40;99.90;;;;;;5007596;28;19925;-83
2023/04/24 09:17:57;;;;;;;;;;;10.50;99.90;;;;;;5009782;28;19939;-81
2023/04/24 09:20:23;;;;;;;;;;;10.50;99.90;;;;;;5013463;28;20546;-81
2023/04/24 09:22:53;;;;;;;;;;;10.60;99.90;;;;;;5021892;28;20491;-79
2023/04/24 09:25:18;;;;;;;;;;;10.40;99.90;;;;;;5039793;28;19921;-82
2023/04/24 09:27:45;;;;;;;;;;;10.30;99.90;;;;;;5022784;28;20420;-82
2023/04/24 09:30:10;;;;;;;;;;;10.40;99.90;;;;;;5022170;28;19929;-81
2023/04/24 09:32:36;;;;;;;;;;;10.30;99.90;;;;;;4999115;28;19936;-81
2023/04/24 09:35:09;;;;;;;;;;;10.30;99.90;;;;;;4992557;28;19921;-80
2023/04/24 09:37:35;;;;;;;;;;;10.20;99.90;;;;;;5017897;28;19927;-82
2023/04/24 09:40:08;;;;;;;;;;;10.10;99.90;;;;;;5017464;28;19928;-81
2023/04/24 09:42:34;;;;;;;;;;;10.10;99.90;;;;;;5022400;28;19920;-81
2023/04/24 09:44:59;;;;;;;;;;;10.00;99.90;;;;;;5021721;28;20254;-82
2023/04/24 09:47:25;;;;;;;;;;;10.20;99.90;;;;;;5035807;28;19986;-81
2023/04/24 09:49:57;;;;;;;;;;;10.20;99.90;;;;;;5031294;28;20672;-81
2023/04/24 09:52:24;;;;;;;;;;;10.10;99.90;;;;;;5006278;28;20366;-81
2023/04/24 09:54:54;;;;;;;;;;;10.20;99.90;;;;;;5020501;28;20569;-81
2023/04/24 09:57:19;;;;;;;;;;;10.00;99.90;;;;;;5031566;28;19928;-81
2023/04/24 09:59:45;;;;;;;;;;;10.10;99.90;;;;;;5018550;28;19936;-81
2023/04/24 10:02:18;;;;;;;;;;;10.10;99.90;;;;;;5003552;28;19928;-80
2023/04/24 10:04:55;;;;;;;;;;;10.10;99.90;;;;;;5012654;28;20424;-81
2023/04/24 10:07:20;;;;;;;;;;;10.10;99.90;;;;;;5026336;28;19966;-80
2023/04/24 10:09:46;;;;;;;;;;;10.20;99.90;;;;;;5003140;28;19999;-81
2023/04/24 10:12:12;;;;;;;;;;;10.10;99.90;;;;;;5028090;28;19928;-82
2023/04/24 10:14:38;;;;;;;;;;;10.10;99.90;;;;;;5013200;28;19964;-80
2023/04/24 10:17:04;;;;;;;;;;;10.10;99.90;;;;;;5014686;28;19960;-81
2023/04/24 10:19:30;;;;;;;;;;;9.90;99.90;;;;;;5004573;28;19920;-78
2023/04/24 10:21:57;;;;;;;;;;;9.80;99.90;;;;;;5017896;28;20609;-80
2023/04/24 10:24:22;;;;;;;;;;;9.90;99.90;;;;;;5015721;28;19974;-81
2023/04/24 10:26:48;;;;;;;;;;;9.90;99.90;;;;;;5031718;28;19920;-81
2023/04/24 10:29:15;;;;;;;;;;;9.80;99.90;;;;;;5016893;28;19920;-81
2023/04/24 10:31:41;;;;;;;;;;;9.90;99.90;;;;;;5014806;28;19924;-81
2023/04/24 10:34:08;;;;;;;;;;;10.00;99.90;;;;;;5018048;28;20011;-80
2023/04/24 10:36:34;;;;;;;;;;;10.00;99.90;;;;;;5008586;28;19935;-80
2023/04/24 10:39:06;;;;;;;;;;;10.10;99.90;;;;;;5018757;28;20376;-81
2023/04/24 10:41:32;;;;;;;;;;;10.10;99.90;;;;;;5034042;28;19917;-81
2023/04/24 10:44:08;;;;;;;;;;;10.20;99.90;;;;;;5021316;28;20348;-82
2023/04/24 10:46:33;;;;;;;;;;;10.20;99.90;;;;;;5032059;28;19921;-81
2023/04/24 10:49:03;;;;;;;;;;;10.10;99.90;;;;;;5014828;28;20048;-83
2023/04/24 10:51:44;;;;;;;;;;;10.10;99.90;;;;;;5033191;28;19917;-81
2023/04/24 10:54:25;;;;;;;;;;;10.00;99.90;;;;;;5018039;28;19928;-82
2023/04/24 10:56:51;;;;;;;;;;;9.90;99.90;;;;;;5033942;28;20460;-81
2023/04/24 10:59:27;;;;;;;;;;;9.90;99.90;;;;;;5007902;28;19917;-82
2023/04/24 11:01:54;;;;;;;;;;;9.60;99.90;;;;;;5030700;28;19924;-85
2023/04/24 11:04:29;;;;;;;;;;;9.40;99.90;;;;;;5015741;28;19956;-84
2023/04/24 11:06:55;;;;;;;;;;;9.40;99.90;;;;;;4995683;28;20015;-84
2023/04/24 11:09:26;;;;;;;;;;;9.30;99.90;;;;;;5015404;28;19926;-85
2023/04/24 11:12:02;;;;;;;;;;;9.30;99.90;;;;;;5014367;28;19927;-82
2023/04/24 11:14:27;;;;;;;;;;;9.30;99.90;;;;;;5035020;28;19963;-82
2023/04/24 11:16:54;;;;;;;;;;;9.30;99.90;;;;;;5016105;28;19925;-81
2023/04/24 11:19:23;;;;;;;;;;;9.40;99.90;;;;;;5019503;28;19956;-81
2023/04/24 11:21:49;;;;;;;;;;;9.40;99.90;;;;;;5020147;28;19928;-81
2023/04/24 11:24:24;;;;;;;;;;;9.40;99.90;;;;;;5020945;28;19916;-81
2023/04/24 11:26:54;;;;;;;;;;;9.50;99.90;;;;;;5018751;28;20380;-80
2023/04/24 11:29:21;;;;;;;;;;;9.50;99.90;;;;;;5020289;28;19935;-83
2023/04/24 11:31:49;;;;;;;;;;;9.70;99.90;;;;;;5016833;28;19928;-82
2023/04/24 11:34:16;;;;;;;;;;;9.70;99.90;;;;;;5015072;28;19920;-82
2023/04/24 11:36:45;;;;;;;;;;;9.80;99.90;;;;;;5021820;28;19949;-82
2023/04/24 11:39:11;;;;;;;;;;;9.90;99.90;;;;;;5005045;28;20593;-82
2023/04/24 11:41:37;;;;;;;;;;;10.00;99.90;;;;;;5005296;28;19927;-82
2023/04/24 11:44:03;;;;;;;;;;;10.20;99.90;;;;;;5005585;28;19924;-81
2023/04/24 11:46:30;;;;;;;;;;;10.30;99.90;;;;;;5011197;28;19924;-82
2023/04/24 11:48:55;;;;;;;;;;;10.30;99.90;;;;;;5008290;28;21440;-82
2023/04/24 11:51:23;;;;;;;;;;;10.50;99.90;;;;;;5029656;28;19920;-81
2023/04/24 11:53:48;;;;;;;;;;;10.50;99.90;;;;;;5016211;28;19927;-82
2023/04/24 11:56:17;;;;;;;;;;;10.50;99.90;;;;;;5035453;28;19928;-81
2023/04/24 11:58:42;;;;;;;;;;;10.50;99.90;;;;;;5016512;28;19931;-81
2023/04/24 12:01:08;;;;;;;;;;;10.50;99.90;;;;;;4995178;28;20404;-81
2023/04/24 12:03:33;;;;;;;;;;;10.50;99.90;;;;;;5032531;28;19921;-80
2023/04/24 12:06:09;;;;;;;;;;;10.40;99.90;;;;;;5032596;28;19921;-80
2023/04/24 12:08:35;;;;;;;;;;;10.30;99.90;;;;;;5005053;28;19920;-80
2023/04/24 12:11:01;;;;;;;;;;;10.30;99.90;;;;;;5022213;28;19928;-81
2023/04/24 12:13:26;;;;;;;;;;;10.20;99.90;;;;;;5026375;28;20321;-81
2023/04/24 12:15:52;;;;;;;;;;;10.10;99.90;;;;;;5014953;28;19928;-80
2023/04/24 12:18:18;;;;;;;;;;;10.10;99.90;;;;;;5019714;28;19935;-81
2023/04/24 12:20:43;;;;;;;;;;;10.20;99.90;;;;;;5001802;28;19920;-80
2023/04/24 12:23:09;;;;;;;;;;;10.20;99.90;;;;;;5017097;28;19990;-80
2023/04/24 12:25:34;;;;;;;;;;;10.20;99.90;;;;;;5016270;28;19929;-81
2023/04/24 12:28:03;;;;;;;;;;;10.20;99.90;;;;;;5017547;28;20031;-80
2023/04/24 12:30:29;;;;;;;;;;;10.10;99.90;;;;;;5039393;28;19928;-80
2023/04/24 12:32:56;;;;;;;;;;;10.00;99.90;;;;;;5034825;28;20003;-80
2023/04/24 12:35:22;;;;;;;;;;;10.00;99.90;;;;;;5014051;28;19943;-79
2023/04/24 12:37:48;;;;;;;;;;;10.00;99.90;;;;;;5010596;28;19952;-80
2023/04/24 12:40:14;;;;;;;;;;;10.10;99.90;;;;;;5014626;28;20008;-81
2023/04/24 12:42:44;;;;;;;;;;;10.20;99.90;;;;;;5015269;28;19963;-78
2023/04/24 12:45:11;;;;;;;;;;;10.30;99.90;;;;;;5014088;28;19920;-84
2023/04/24 12:47:37;;;;;;;;;;;10.20;99.90;;;;;;5026106;28;20463;-77
2023/04/24 12:50:03;;;;;;;;;;;10.20;99.90;;;;;;5016118;28;19983;-81
2023/04/24 12:52:29;;;;;;;;;;;10.20;99.90;;;;;;5024092;28;19924;-80
2023/04/24 12:54:56;;;;;;;;;;;10.10;99.90;;;;;;5013221;28;20629;-80
2023/04/24 12:57:23;;;;;;;;;;;10.10;99.90;;;;;;5029870;28;19920;-80
2023/04/24 12:59:48;;;;;;;;;;;10.10;99.90;;;;;;5017603;28;19925;-79
2023/04/24 13:02:17;;;;;;;;;;;10.20;99.90;;;;;;5020661;28;19928;-81
2023/04/24 13:04:49;;;;;;;;;;;10.10;99.90;;;;;;5020897;28;19927;-81
2023/04/24 13:07:15;;;;;;;;;;;10.00;99.90;;;;;;5019068;28;19967;-79
2023/04/24 13:09:41;;;;;;;;;;;9.90;99.90;;;;;;5035116;28;20011;-80
2023/04/24 13:12:07;;;;;;;;;;;9.80;99.90;;;;;;5037322;28;19966;-80
2023/04/24 13:14:32;;;;;;;;;;;9.70;99.90;;;;;;5017478;28;19921;-81
2023/04/24 13:16:58;;;;;;;;;;;9.70;99.90;;;;;;5016902;28;20055;-80
2023/04/24 13:19:25;;;;;;;;;;;9.70;99.90;;;;;;5020539;28;19960;-80
2023/04/24 13:21:51;;;;;;;;;;;9.70;99.90;;;;;;5017800;28;19987;-80
2023/04/24 13:24:17;;;;;;;;;;;9.70;99.90;;;;;;5019843;28;20356;-79
2023/04/24 13:26:42;;;;;;;;;;;9.80;99.90;;;;;;5018730;28;20551;-80
2023/04/24 13:29:08;;;;;;;;;;;9.70;99.90;;;;;;5018650;28;20365;-80
2023/04/24 13:31:33;;;;;;;;;;;9.60;99.90;;;;;;5015522;28;19927;-80
2023/04/24 13:33:59;;;;;;;;;;;9.70;99.90;;;;;;5034605;28;19940;-80
2023/04/24 13:36:25;;;;;;;;;;;9.80;99.90;;;;;;5018394;28;19927;-80
2023/04/24 13:38:50;;;;;;;;;;;9.70;99.90;;;;;;5036993;28;19978;-81
2023/04/24 13:41:16;;;;;;;;;;;9.60;99.90;;;;;;4999633;28;19971;-80
2023/04/24 13:43:42;;;;;;;;;;;9.60;99.90;;;;;;5033229;28;19948;-80
2023/04/24 13:46:08;;;;;;;;;;;9.50;99.90;;;;;;5003771;28;19921;-82
2023/04/24 13:48:34;;;;;;;;;;;9.50;99.90;;;;;;5006329;28;19928;-81
2023/04/24 13:51:03;;;;;;;;;;;9.50;99.90;;;;;;4975616;28;19928;-81
2023/04/24 13:53:28;;;;;;;;;;;9.50;99.90;;;;;;4985358;28;19921;-79
2023/04/24 13:55:54;;;;;;;;;;;9.50;99.90;;;;;;5016346;28;20145;-80
2023/04/24 13:58:20;;;;;;;;;;;9.50;99.90;;;;;;4998635;28;20007;-81
2023/04/24 14:00:46;;;;;;;;;;;9.50;99.90;;;;;;4991095;28;20595;-80
2023/04/24 14:03:19;;;;;;;;;;;9.60;99.90;;;;;;5075147;27;19939;-79
2023/04/24 14:05:44;;;;;;;;;;;9.60;99.90;;;;;;5059518;28;19924;-79
2023/04/24 14:08:10;;;;;;;;;;;9.60;99.90;;;;;;5070198;28;19980;-80
2023/04/24 14:10:35;;;;;;;;;;;9.60;99.90;;;;;;5068934;28;20022;-79
2023/04/24 14:13:01;;;;;;;;;;;9.70;99.90;;;;;;5079630;28;20052;-79
2023/04/24 14:15:26;;;;;;;;;;;9.80;99.90;;;;;;5067670;28;19977;-79
2023/04/24 14:17:52;;;;;;;;;;;9.80;99.90;;;;;;5073691;28;19935;-79
2023/04/24 14:20:18;;;;;;;;;;;9.90;99.90;;;;;;5062382;28;19928;-79